Time;durP1;ratioP1;P1;durP2;ratioP2;P2;SDS_P1;SDS_P2;PMS_P1;PMS_P2;Temp;Humidity;BMP_temperature;BMP_pressure;BME280_temperature;BME280_humidity;BME280_pressure;Samples;Min_cycle;Max_cycle;Signal;HPM_P1;HPM_P2
2021/06/13 00:00:32;;;;;;;13.18;4.25;;;;;;;26.67;46.78;99434.38;4484223;32;33336;-63
2021/06/13 00:02:59;;;;;;;10.10;4.68;;;;;;;26.66;46.46;99441.75;4483445;32;34692;-63
2021/06/13 00:05:27;;;;;;;7.10;4.55;;;;;;;26.67;46.67;99448.06;4483930;32;33904;-63
2021/06/13 00:07:55;;;;;;;6.32;4.47;;;;;;;26.67;46.16;99450.78;4484078;32;34597;-63
2021/06/13 00:10:23;;;;;;;7.40;3.90;;;;;;;26.66;46.26;99462.81;4484134;32;34526;-63
2021/06/13 00:12:50;;;;;;;7.70;4.00;;;;;;;26.66;46.11;99462.81;4484138;32;34644;-63
2021/06/13 00:15:20;;;;;;;7.53;4.03;;;;;;;26.65;46.16;99461.19;4482891;32;34468;-63
2021/06/13 00:17:49;;;;;;;5.12;3.83;;;;;;;26.65;46.34;99469.38;4484040;32;33841;-63
2021/06/13 00:20:21;;;;;;;7.65;4.30;;;;;;;26.66;46.06;99469.13;4483854;32;33239;-63
2021/06/13 00:22:50;;;;;;;8.43;4.47;;;;;;;26.64;46.12;99473.22;4483846;32;34550;-63
2021/06/13 00:25:18;;;;;;;6.62;4.35;;;;;;;26.66;45.97;99479.25;4483869;32;33798;-63
2021/06/13 00:27:45;;;;;;;6.10;3.67;;;;;;;26.66;46.06;99473.78;4484146;32;34961;-63
2021/06/13 00:30:13;;;;;;;5.32;3.70;;;;;;;26.66;45.95;99473.78;4484042;32;33246;-63
2021/06/13 00:32:41;;;;;;;6.12;4.10;;;;;;;26.65;45.88;99472.94;4483735;32;34437;-63
2021/06/13 00:35:09;;;;;;;6.10;3.70;;;;;;;26.65;45.67;99480.34;4484174;32;34696;-63
2021/06/13 00:37:37;;;;;;;7.25;4.18;;;;;;;26.65;45.59;99477.59;4483891;32;33749;-62
2021/06/13 00:40:05;;;;;;;7.00;4.05;;;;;;;26.64;45.69;99479.50;4483743;32;33456;-63
2021/06/13 00:42:33;;;;;;;8.27;3.90;;;;;;;26.65;45.84;99480.34;4484033;32;34787;-63
2021/06/13 00:45:02;;;;;;;7.55;4.12;;;;;;;26.64;45.89;99482.25;4484064;32;34957;-63
2021/06/13 00:47:30;;;;;;;10.38;3.95;;;;;;;26.64;46.06;99487.72;4483689;32;33806;-63
2021/06/13 00:49:58;;;;;;;6.57;3.97;;;;;;;26.62;46.01;99487.12;4484006;32;33034;-62
2021/06/13 00:52:26;;;;;;;6.60;3.90;;;;;;;26.62;46.16;99489.87;4484065;32;33781;-63
2021/06/13 00:54:54;;;;;;;6.85;3.50;;;;;;;26.62;46.29;99480.84;4483885;32;35089;-63
2021/06/13 00:57:22;;;;;;;5.05;3.20;;;;;;;26.61;46.01;99490.13;4483504;32;33923;-63
2021/06/13 00:59:50;;;;;;;6.78;3.35;;;;;;;26.59;45.36;99501.34;4483773;32;33472;-63
2021/06/13 01:02:17;;;;;;;6.00;3.50;;;;;;;26.60;45.82;99513.13;4482953;32;34518;-63
2021/06/13 01:04:45;;;;;;;5.95;3.80;;;;;;;26.60;45.50;99505.72;4483825;32;35448;-62
2021/06/13 01:07:18;;;;;;;7.62;3.37;;;;;;;26.60;45.78;99507.63;4483673;32;33725;-62
2021/06/13 01:09:53;;;;;;;6.00;3.22;;;;;;;26.57;45.75;99495.28;4482598;32;33059;-63
2021/06/13 01:12:24;;;;;;;4.32;3.12;;;;;;;26.58;45.05;99488.75;4482545;32;34583;-63
2021/06/13 01:14:58;;;;;;;5.60;3.80;;;;;;;26.57;45.15;99483.50;4482336;32;34660;-63
2021/06/13 01:17:50;;;;;;;5.10;3.80;;;;;;;26.58;45.60;99482.41;4483384;32;33842;-63
2021/06/13 01:20:34;;;;;;;6.85;3.12;;;;;;;26.56;45.53;99473.66;4481268;32;33298;-63
2021/06/13 01:23:20;;;;;;;7.22;3.80;;;;;;;26.57;45.06;99470.66;4482099;32;33830;-63
2021/06/13 01:26:00;;;;;;;5.03;3.12;;;;;;;26.56;45.33;99479.12;4483386;32;33796;-63
2021/06/13 01:28:50;;;;;;;6.03;3.50;;;;;;;26.53;45.46;99480.44;4483198;32;33751;-62
2021/06/13 01:31:18;;;;;;;7.90;3.33;;;;;;;26.56;45.01;99473.66;4482097;32;34133;-63
2021/06/13 01:33:47;;;;;;;5.22;3.22;;;;;;;26.54;45.00;99478.56;4468947;32;33668;-62
2021/06/13 01:36:15;;;;;;;7.25;2.97;;;;;;;26.52;45.09;99477.97;4482174;32;34456;-63
2021/06/13 01:38:46;;;;;;;5.97;3.22;;;;;;;26.52;45.17;99491.66;4469358;32;34568;-63
2021/06/13 01:41:19;;;;;;;6.10;3.05;;;;;;;26.51;45.27;99485.38;4483207;32;33320;-63
2021/06/13 01:43:47;;;;;;;6.28;2.85;;;;;;;26.51;44.69;99495.47;4482154;32;33636;-63
2021/06/13 01:46:16;;;;;;;5.40;3.00;;;;;;;26.51;44.95;99500.97;4469243;32;33773;-63
2021/06/13 01:48:43;;;;;;;6.20;3.00;;;;;;;26.50;44.95;99500.13;4469115;32;34114;-62
2021/06/13 01:51:11;;;;;;;5.30;2.85;;;;;;;26.49;44.94;99498.47;4468855;32;33345;-63
2021/06/13 01:53:42;;;;;;;5.57;2.85;;;;;;;26.50;44.89;99502.03;4481850;32;33876;-63
2021/06/13 01:56:12;;;;;;;4.30;2.70;;;;;;;26.47;44.59;99506.09;4482962;32;33860;-63
2021/06/13 01:58:43;;;;;;;5.62;2.80;;;;;;;26.47;44.59;99503.38;4483003;32;33709;-62
2021/06/13 02:01:16;;;;;;;4.55;2.58;;;;;;;26.46;44.33;99515.41;4469157;32;33325;-63
2021/06/13 02:03:51;;;;;;;6.70;2.80;;;;;;;26.45;44.37;99519.22;4481574;32;33652;-62
2021/06/13 02:06:24;;;;;;;6.10;2.70;;;;;;;26.43;44.38;99513.97;4481346;32;33777;-62
2021/06/13 02:08:53;;;;;;;6.03;2.67;;;;;;;26.42;44.10;99504.09;4469235;32;33825;-62
2021/06/13 02:11:21;;;;;;;7.10;2.90;;;;;;;26.42;44.03;99514.22;4468726;32;33353;-63
2021/06/13 02:13:49;;;;;;;4.43;2.62;;;;;;;26.41;43.96;99521.59;4482736;32;33772;-62
2021/06/13 02:16:18;;;;;;;4.22;2.25;;;;;;;26.40;43.83;99521.84;4470775;32;34011;-62
2021/06/13 02:18:56;;;;;;;3.83;2.30;;;;;;;26.39;43.75;99526.50;4483910;32;33887;-63
2021/06/13 02:21:26;;;;;;;5.95;3.05;;;;;;;26.38;43.53;99537.69;4483913;32;33343;-63
2021/06/13 02:23:54;;;;;;;5.32;2.50;;;;;;;26.37;43.46;99553.28;4483954;32;33749;-63
2021/06/13 02:26:22;;;;;;;6.62;2.67;;;;;;;26.36;43.18;99559.81;4483715;32;33847;-63
2021/06/13 02:28:53;;;;;;;4.05;2.33;;;;;;;26.36;42.88;99556.25;4470757;32;33664;-63
2021/06/13 02:31:24;;;;;;;6.07;2.35;;;;;;;26.34;42.77;99551.03;4485144;32;33382;-63
2021/06/13 02:33:53;;;;;;;5.80;2.33;;;;;;;26.32;42.58;99555.94;4483446;32;34827;-63
2021/06/13 02:36:22;;;;;;;5.12;2.58;;;;;;;26.32;42.47;99564.13;4471120;32;33513;-63
2021/06/13 02:38:57;;;;;;;5.03;2.60;;;;;;;26.32;42.21;99557.84;4458082;32;34238;-63
2021/06/13 02:41:26;;;;;;;5.78;2.70;;;;;;;26.30;42.01;99560.00;4484795;32;33467;-63
2021/06/13 02:43:55;;;;;;;5.75;2.47;;;;;;;26.28;42.02;99564.91;4485034;32;33853;-63
2021/06/13 02:46:25;;;;;;;6.37;2.92;;;;;;;26.27;41.97;99558.59;4484881;32;34042;-63
2021/06/13 02:48:53;;;;;;;4.37;2.62;;;;;;;26.25;41.85;99559.91;4485011;32;33836;-63
2021/06/13 02:51:23;;;;;;;11.85;2.28;;;;;;;26.25;41.70;99562.66;4484932;32;34111;-63
2021/06/13 02:53:54;;;;;;;7.57;2.50;;;;;;;26.22;41.47;99572.19;4470987;32;33488;-63
2021/06/13 02:56:32;;;;;;;5.32;2.28;;;;;;;26.21;41.29;99573.28;4483639;32;33776;-62
2021/06/13 02:59:09;;;;;;;7.75;3.00;;;;;;;26.21;41.28;99581.50;4484639;32;33757;-62
2021/06/13 03:01:39;;;;;;;6.20;2.05;;;;;;;26.18;41.17;99582.81;4483696;32;33746;-62
2021/06/13 03:04:09;;;;;;;4.87;2.33;;;;;;;26.19;41.15;99578.16;4483627;32;33715;-62
2021/06/13 03:06:37;;;;;;;6.35;2.83;;;;;;;26.17;40.87;99585.81;4470830;32;33864;-63
2021/06/13 03:09:05;;;;;;;8.43;2.47;;;;;;;26.15;40.63;99587.94;4470800;32;33841;-63
2021/06/13 03:11:33;;;;;;;6.68;2.67;;;;;;;26.14;40.64;99597.22;4483572;32;34403;-63
2021/06/13 03:14:01;;;;;;;7.55;2.42;;;;;;;26.12;40.34;99605.69;4483651;32;33717;-63
2021/06/13 03:16:32;;;;;;;5.97;2.75;;;;;;;26.11;40.25;99609.50;4484630;32;34088;-63
2021/06/13 03:19:01;;;;;;;6.75;2.67;;;;;;;26.08;40.24;99603.69;4470510;32;34386;-62
2021/06/13 03:21:28;;;;;;;6.00;2.55;;;;;;;26.07;40.18;99608.34;4483330;32;34054;-62
2021/06/13 03:23:57;;;;;;;5.28;2.65;;;;;;;26.06;40.25;99614.88;4483158;32;34523;-63
2021/06/13 03:26:25;;;;;;;7.35;3.05;;;;;;;26.05;40.04;99621.41;4482994;32;33783;-63
2021/06/13 03:28:56;;;;;;;3.97;2.37;;;;;;;26.03;39.98;99631.78;4483442;32;33947;-63
2021/06/13 03:31:25;;;;;;;5.32;2.42;;;;;;;26.03;39.81;99630.97;4470632;32;33543;-63
2021/06/13 03:33:53;;;;;;;11.93;3.10;;;;;;;26.01;39.91;99636.66;4484224;32;33483;-63
2021/06/13 03:36:22;;;;;;;4.68;2.45;;;;;;;26.00;39.79;99651.41;4470474;32;34551;-62
2021/06/13 03:38:49;;;;;;;8.48;2.67;;;;;;;26.00;39.81;99647.84;4470544;32;34404;-63
2021/06/13 03:41:19;;;;;;;5.70;2.45;;;;;;;25.98;39.58;99647.28;4484445;32;33144;-62
2021/06/13 03:43:46;;;;;;;5.37;2.17;;;;;;;25.96;39.56;99658.44;4483044;32;34438;-62
2021/06/13 03:46:16;;;;;;;9.02;2.60;;;;;;;25.95;39.71;99654.06;4483156;32;33815;-63
2021/06/13 03:48:44;;;;;;;5.82;2.55;;;;;;;25.94;39.58;99664.16;4483388;32;34312;-63
2021/06/13 03:51:12;;;;;;;7.47;2.50;;;;;;;25.92;39.58;99658.09;4484315;32;33992;-63
2021/06/13 03:53:53;;;;;;;5.47;2.30;;;;;;;25.92;39.75;99663.56;4482800;32;33903;-62
2021/06/13 03:56:39;;;;;;;6.53;2.60;;;;;;;25.92;39.63;99668.22;4483085;32;33844;-63
2021/06/13 03:59:08;;;;;;;5.03;2.15;;;;;;;25.90;39.38;99668.47;4471601;32;34388;-63
2021/06/13 04:01:37;;;;;;;10.35;2.47;;;;;;;25.88;39.34;99678.81;4482881;32;33487;-62
2021/06/13 04:04:05;;;;;;;7.35;2.15;;;;;;;25.89;39.26;99687.84;4470414;32;33802;-63
2021/06/13 04:06:32;;;;;;;5.25;2.35;;;;;;;25.87;39.44;99687.25;4482776;32;33831;-63
2021/06/13 04:09:00;;;;;;;4.85;2.40;;;;;;;25.87;39.15;99687.25;4484205;32;34788;-62
2021/06/13 04:11:27;;;;;;;5.85;2.30;;;;;;;25.85;39.37;99684.78;4484368;32;34354;-62
2021/06/13 04:13:55;;;;;;;7.28;2.30;;;;;;;25.85;39.44;99687.50;4483117;32;33792;-62
2021/06/13 04:16:23;;;;;;;6.65;2.15;;;;;;;25.84;39.31;99690.50;4482682;32;33820;-63
2021/06/13 04:18:51;;;;;;;4.50;2.55;;;;;;;25.84;39.17;99694.06;4469917;32;33915;-63
2021/06/13 04:21:18;;;;;;;5.62;2.30;;;;;;;25.82;38.88;99685.25;4484087;32;33442;-62
2021/06/13 04:23:46;;;;;;;8.35;2.72;;;;;;;25.82;38.96;99692.62;4482723;32;34834;-62
2021/06/13 04:26:14;;;;;;;5.95;2.20;;;;;;;25.81;38.98;99688.25;4469999;32;33662;-63
2021/06/13 04:28:44;;;;;;;7.43;2.40;;;;;;;25.80;39.14;99697.53;4482698;32;34559;-63
2021/06/13 04:31:13;;;;;;;8.80;2.67;;;;;;;25.78;39.09;99697.75;4483013;32;33035;-63
2021/06/13 04:33:46;;;;;;;6.62;2.47;;;;;;;25.78;38.99;99705.13;4484260;32;33829;-63
2021/06/13 04:36:17;;;;;;;7.18;2.62;;;;;;;25.77;38.94;99715.22;4483467;32;34906;-62
2021/06/13 04:38:45;;;;;;;5.80;2.30;;;;;;;25.77;39.00;99706.19;4483977;32;33747;-62
2021/06/13 04:41:12;;;;;;;6.25;2.78;;;;;;;25.75;38.99;99720.09;4483724;32;34226;-62
2021/06/13 04:43:40;;;;;;;5.62;2.42;;;;;;;25.74;38.92;99714.84;4483818;32;35173;-63
2021/06/13 04:46:09;;;;;;;5.55;2.28;;;;;;;25.74;38.92;99706.66;4483838;32;34680;-62
2021/06/13 04:48:37;;;;;;;5.43;2.30;;;;;;;25.73;38.98;99711.28;4483732;32;33941;-63
2021/06/13 04:51:07;;;;;;;6.35;3.08;;;;;;;25.74;39.04;99714.84;4483792;32;33268;-62
2021/06/13 04:53:47;;;;;;;8.25;2.60;;;;;;;25.73;39.09;99715.94;4483837;32;34528;-62
2021/06/13 04:56:20;;;;;;;;;;;;;;;25.76;39.01;99720.94;4484166;32;33828;-63
2021/06/13 04:58:48;;;;;;;6.50;2.60;;;;;;;25.82;38.88;99728.16;4468003;32;34127;-62
2021/06/13 05:01:15;;;;;;;5.50;2.20;;;;;;;25.74;38.88;99728.50;4468003;32;33379;-63
2021/06/13 05:03:43;;;;;;;5.00;2.50;;;;;;;25.70;39.08;99730.94;4467865;32;34581;-62
2021/06/13 05:06:11;;;;;;;5.28;2.55;;;;;;;25.69;39.09;99741.03;4467880;32;33531;-62
2021/06/13 05:08:41;;;;;;;4.15;2.37;;;;;;;25.69;38.92;99740.16;4466427;32;34650;-63
2021/06/13 05:11:09;;;;;;;7.80;2.65;;;;;;;25.68;39.07;99742.06;4467905;32;33556;-63
2021/06/13 05:13:39;;;;;;;7.47;2.60;;;;;;;25.68;39.15;99743.97;4467802;32;33503;-63
2021/06/13 05:16:06;;;;;;;8.25;2.50;;;;;;;25.69;39.12;99743.75;4467700;32;33969;-62
2021/06/13 05:18:34;;;;;;;7.57;2.50;;;;;;;25.69;39.24;99754.69;4467728;32;34764;-62
2021/06/13 05:21:02;;;;;;;8.02;2.60;;;;;;;25.71;39.31;99759.91;4467787;32;34117;-63
2021/06/13 05:23:30;;;;;;;6.10;2.37;;;;;;;25.73;39.33;99754.19;4467792;32;34065;-62
2021/06/13 05:25:58;;;;;;;5.45;2.28;;;;;;;25.73;39.33;99757.75;4467591;32;34028;-62
2021/06/13 05:28:26;;;;;;;5.37;2.17;;;;;;;25.73;39.45;99771.41;4467519;32;33664;-63
2021/06/13 05:30:55;;;;;;;4.85;2.47;;;;;;;25.75;39.38;99784.84;4467744;32;33362;-63
2021/06/13 05:33:23;;;;;;;6.75;2.30;;;;;;;25.75;39.42;99779.37;4467385;32;34466;-62
2021/06/13 05:35:51;;;;;;;4.57;2.33;;;;;;;25.75;39.28;99784.84;4471119;32;34838;-61
2021/06/13 05:38:19;;;;;;;5.93;2.30;;;;;;;25.75;39.29;99787.59;4478500;32;33847;-61
2021/06/13 05:40:49;;;;;;;4.40;1.80;;;;;;;25.76;39.29;99794.75;4482537;32;33325;-61
2021/06/13 05:43:17;;;;;;;8.10;2.45;;;;;;;25.76;39.39;99792.00;4482649;32;34470;-63
2021/06/13 05:45:44;;;;;;;8.23;2.67;;;;;;;25.77;39.26;99799.12;4481364;32;33625;-61
2021/06/13 05:48:12;;;;;;;6.18;2.50;;;;;;;25.77;39.21;99797.22;4482794;32;33764;-62
2021/06/13 05:50:40;;;;;;;5.30;2.47;;;;;;;25.76;39.29;99792.00;4483064;32;33346;-61
2021/06/13 05:53:07;;;;;;;3.78;1.98;;;;;;;25.77;39.23;99810.06;4483181;32;34702;-61
2021/06/13 05:55:35;;;;;;;6.18;2.45;;;;;;;25.77;39.29;99799.12;4484958;32;34467;-61
2021/06/13 05:58:03;;;;;;;4.72;2.33;;;;;;;25.76;39.20;99795.56;4484246;32;34463;-62
2021/06/13 06:00:32;;;;;;;5.47;2.62;;;;;;;25.76;39.08;99805.66;4484556;32;34458;-62
2021/06/13 06:03:00;;;;;;;4.35;2.08;;;;;;;25.76;39.16;99805.66;4484593;32;34460;-62
2021/06/13 06:05:30;;;;;;;6.97;2.20;;;;;;;25.77;39.06;99812.78;4482449;32;34739;-62
2021/06/13 06:07:57;;;;;;;6.32;2.33;;;;;;;25.76;39.00;99809.22;4482149;32;33536;-62
2021/06/13 06:10:26;;;;;;;6.90;2.30;;;;;;;25.76;38.88;99800.22;4484424;32;33367;-62
2021/06/13 06:12:54;;;;;;;4.15;2.10;;;;;;;25.75;38.74;99810.28;4484315;32;33830;-61
2021/06/13 06:15:23;;;;;;;5.57;1.90;;;;;;;25.76;38.63;99805.66;4484671;32;34490;-61
2021/06/13 06:17:50;;;;;;;5.47;2.47;;;;;;;25.75;38.46;99810.28;4484279;32;35309;-61
2021/06/13 06:20:20;;;;;;;6.18;2.22;;;;;;;25.74;38.50;99808.63;4482485;32;32348;-62
2021/06/13 06:22:48;;;;;;;8.68;2.40;;;;;;;25.74;38.33;99807.75;4484616;32;33325;-61
2021/06/13 06:25:17;;;;;;;6.45;2.28;;;;;;;25.75;38.19;99803.97;4484082;32;34669;-61
2021/06/13 06:27:44;;;;;;;5.55;2.12;;;;;;;25.73;38.01;99800.66;4484269;32;33745;-61
2021/06/13 06:30:12;;;;;;;6.00;2.20;;;;;;;25.71;37.36;99814.56;4484605;32;33258;-62
2021/06/13 06:32:41;;;;;;;6.62;1.90;;;;;;;25.69;37.27;99808.50;4484498;32;33804;-61
2021/06/13 06:35:10;;;;;;;7.70;2.60;;;;;;;25.68;37.47;99815.03;4484633;31;33889;-61
2021/06/13 06:37:38;;;;;;;10.20;2.20;;;;;;;25.69;37.47;99814.81;4484738;32;33922;-61
2021/06/13 06:40:07;;;;;;;18.55;2.55;;;;;;;25.69;37.48;99822.16;4484527;32;33217;-61
2021/06/13 06:42:35;;;;;;;6.00;1.90;;;;;;;25.69;37.46;99819.41;4484753;32;33730;-61
2021/06/13 06:45:03;;;;;;;20.05;3.75;;;;;;;25.68;37.46;99818.59;4484446;32;34807;-61
2021/06/13 06:47:30;;;;;;;17.17;2.15;;;;;;;25.69;37.50;99825.75;4484334;32;34286;-61
2021/06/13 06:49:58;;;;;;;8.68;2.20;;;;;;;25.71;37.80;99836.44;4484288;32;34510;-63
2021/06/13 06:52:25;;;;;;;9.60;2.28;;;;;;;25.70;37.51;99827.41;4482963;32;34611;-61
2021/06/13 06:54:53;;;;;;;11.50;2.30;;;;;;;25.72;37.39;99821.69;4484062;32;34915;-61
2021/06/13 06:57:21;;;;;;;9.48;2.30;;;;;;;25.72;37.07;99826.31;4482228;32;33875;-61
2021/06/13 06:59:48;;;;;;;8.65;2.60;;;;;;;25.69;37.09;99828.47;4483491;32;33416;-61
2021/06/13 07:02:16;;;;;;;5.03;1.77;;;;;;;25.70;36.93;99834.78;4484199;32;33428;-61
2021/06/13 07:04:45;;;;;;;6.07;2.25;;;;;;;25.70;37.32;99827.41;4483138;32;33818;-62
2021/06/13 07:07:12;;;;;;;6.62;1.95;;;;;;;25.70;36.98;99832.03;4484038;32;33637;-62
2021/06/13 07:09:40;;;;;;;7.07;2.37;;;;;;;25.71;36.77;99833.69;4484339;32;34335;-63
2021/06/13 07:12:08;;;;;;;4.45;2.03;;;;;;;25.71;36.74;99828.22;4484438;32;33814;-63
2021/06/13 07:14:36;;;;;;;4.90;1.70;;;;;;;25.72;36.49;99831.78;4484376;32;33853;-62
2021/06/13 07:17:04;;;;;;;6.65;2.00;;;;;;;25.73;36.59;99830.72;4484324;32;34685;-63
2021/06/13 07:19:31;;;;;;;4.90;1.70;;;;;;;25.75;36.48;99839.50;4484684;32;33385;-63
2021/06/13 07:21:59;;;;;;;9.85;2.25;;;;;;;25.75;36.74;99834.03;4484515;32;34585;-63
2021/06/13 07:24:27;;;;;;;4.93;1.90;;;;;;;25.75;36.90;99845.81;4484455;32;34970;-62
2021/06/13 07:26:54;;;;;;;6.70;2.15;;;;;;;25.77;37.13;99848.31;4484597;32;34590;-63
2021/06/13 07:29:22;;;;;;;5.87;1.50;;;;;;;25.77;36.73;99851.06;4484502;32;34099;-63
2021/06/13 07:31:50;;;;;;;4.28;1.75;;;;;;;25.78;36.62;99859.00;4484457;32;33496;-69
2021/06/13 07:34:17;;;;;;;12.63;2.22;;;;;;;25.79;36.04;99859.88;4481800;32;33925;-68
2021/06/13 07:36:45;;;;;;;10.45;2.10;;;;;;;25.79;35.99;99857.13;4483695;32;34008;-68
2021/06/13 07:39:13;;;;;;;8.95;2.22;;;;;;;25.78;35.96;99860.91;4483945;32;34107;-68
2021/06/13 07:41:40;;;;;;;7.43;2.87;;;;;;;25.79;36.14;99868.88;4483864;32;33828;-68
2021/06/13 07:44:08;;;;;;;11.15;2.17;;;;;;;25.81;36.02;99871.37;4483554;32;34418;-69
2021/06/13 07:46:36;;;;;;;11.65;2.08;;;;;;;25.82;36.14;99876.59;4483738;32;33797;-67
2021/06/13 07:49:04;;;;;;;6.78;1.98;;;;;;;25.81;36.15;99880.41;4484097;32;33283;-69
2021/06/13 07:51:31;;;;;;;6.57;1.87;;;;;;;25.82;36.12;99875.75;4483628;32;34519;-68
2021/06/13 07:53:59;;;;;;;7.07;1.87;;;;;;;25.82;36.20;99878.50;4483755;32;34021;-64
2021/06/13 07:56:26;;;;;;;6.18;1.80;;;;;;;25.83;36.28;99875.50;4468630;32;33783;-67
2021/06/13 07:58:54;;;;;;;6.03;2.33;;;;;;;25.83;36.36;99880.97;4468441;32;33273;-69
2021/06/13 08:01:22;;;;;;;5.32;1.98;;;;;;;25.85;36.43;99862.44;4469799;32;34915;-68
2021/06/13 08:03:50;;;;;;;5.87;1.80;;;;;;;25.85;36.45;99859.72;4483046;32;33838;-70
2021/06/13 08:06:18;;;;;;;5.43;1.90;;;;;;;25.85;36.46;99856.16;4469785;32;33858;-70
2021/06/13 08:08:47;;;;;;;5.18;1.70;;;;;;;25.84;36.49;99863.53;4484239;32;33295;-66
2021/06/13 08:11:16;;;;;;;6.12;2.30;;;;;;;25.85;36.53;99847.94;4483143;32;33796;-68
2021/06/13 08:13:44;;;;;;;6.28;1.90;;;;;;;25.83;36.51;99856.37;4483923;32;33955;-69
2021/06/13 08:16:11;;;;;;;5.22;2.10;;;;;;;25.82;36.49;99854.72;4484226;32;33388;-70
2021/06/13 08:18:39;;;;;;;4.57;1.80;;;;;;;25.86;36.53;99871.47;4484353;32;32946;-69
2021/06/13 08:21:07;;;;;;;4.28;2.05;;;;;;;25.87;36.51;99867.66;4483870;32;35217;-70
2021/06/13 08:23:35;;;;;;;9.35;2.30;;;;;;;25.86;36.49;99860.53;4484161;32;34938;-68
2021/06/13 08:26:03;;;;;;;3.85;1.60;;;;;;;25.87;36.54;99863.03;4483941;32;34950;-68
2021/06/13 08:28:30;;;;;;;6.68;1.58;;;;;;;25.86;36.56;99866.84;4483077;32;35119;-66
2021/06/13 08:30:58;;;;;;;4.90;2.12;;;;;;;25.88;36.54;99875.66;4482441;32;33746;-68
2021/06/13 08:33:26;;;;;;;6.15;1.75;;;;;;;25.89;36.52;99874.56;4483417;32;33602;-67
2021/06/13 08:35:53;;;;;;;5.68;1.92;;;;;;;25.90;36.55;99878.97;4483628;32;33852;-68
2021/06/13 08:38:23;;;;;;;5.25;1.77;;;;;;;25.90;36.67;99884.41;4483883;32;33360;-67
2021/06/13 08:40:51;;;;;;;5.07;1.77;;;;;;;25.89;36.73;99890.97;4483860;32;33473;-68
2021/06/13 08:43:18;;;;;;;3.92;1.67;;;;;;;25.90;36.75;99894.53;4484008;32;34000;-67
2021/06/13 08:45:46;;;;;;;4.57;1.83;;;;;;;25.92;36.76;99895.94;4484070;32;34501;-67
2021/06/13 08:48:14;;;;;;;3.85;1.30;;;;;;;25.93;36.74;99899.53;4469801;32;33242;-67
2021/06/13 08:50:42;;;;;;;3.70;1.58;;;;;;;25.89;36.82;99885.50;4483487;32;34634;-67
2021/06/13 08:53:10;;;;;;;8.23;2.30;;;;;;;25.92;36.80;99909.59;4481913;32;34629;-65
2021/06/13 08:55:37;;;;;;;4.28;1.90;;;;;;;25.94;36.63;99898.44;4469798;32;33753;-70
2021/06/13 08:58:05;;;;;;;4.78;1.67;;;;;;;25.93;36.67;99889.41;4483837;32;34073;-69
2021/06/13 09:00:33;;;;;;;4.57;2.03;;;;;;;25.95;36.72;99894.63;4483774;32;33549;-70
2021/06/13 09:03:01;;;;;;;4.72;1.65;;;;;;;25.93;36.78;99897.62;4482513;32;34037;-69
2021/06/13 09:05:29;;;;;;;5.40;1.52;;;;;;;25.94;36.79;99898.44;4483660;32;33629;-68
2021/06/13 09:07:58;;;;;;;5.32;2.00;;;;;;;25.94;36.83;99904.75;4483515;32;33242;-69
2021/06/13 09:10:29;;;;;;;3.05;1.45;;;;;;;25.93;36.82;99903.09;4483564;32;34793;-69
2021/06/13 09:13:09;;;;;;;;;;;;;;;25.95;36.80;99902.84;4483966;32;33869;-69
2021/06/13 09:15:42;;;;;;;5.20;2.05;;;;;;;26.07;36.62;99913.75;4483586;32;34286;-68
2021/06/13 09:18:28;;;;;;;4.28;1.80;;;;;;;25.99;36.69;99908.66;4483392;32;34259;-69
2021/06/13 09:20:57;;;;;;;4.47;1.90;;;;;;;25.96;36.88;99907.22;4482341;32;34574;-68
2021/06/13 09:23:29;;;;;;;3.80;1.83;;;;;;;25.93;36.97;99911.28;4484981;32;35053;-70
2021/06/13 09:26:03;;;;;;;3.28;1.62;;;;;;;25.93;36.95;99903.09;4484142;32;33802;-69
2021/06/13 09:28:32;;;;;;;6.70;1.60;;;;;;;25.92;36.96;99908.78;4485261;32;33379;-70
2021/06/13 09:31:00;;;;;;;5.28;1.80;;;;;;;25.94;37.01;99917.59;4485350;32;34440;-70
2021/06/13 09:33:30;;;;;;;5.93;1.87;;;;;;;25.97;37.04;99916.25;4485319;32;33872;-68
2021/06/13 09:36:04;;;;;;;4.68;1.65;;;;;;;25.94;37.08;99914.84;4485139;32;33708;-70
2021/06/13 09:38:38;;;;;;;5.70;2.00;;;;;;;25.94;37.12;99920.31;4485587;32;33268;-67
2021/06/13 09:41:10;;;;;;;3.50;1.60;;;;;;;25.95;37.12;99922.81;4485008;32;34259;-67
2021/06/13 09:43:47;;;;;;;4.25;1.73;;;;;;;25.94;37.01;99915.69;4485449;32;33848;-69
2021/06/13 09:46:32;;;;;;;3.40;1.67;;;;;;;25.95;37.03;99922.81;4484951;32;33831;-68
2021/06/13 09:49:03;;;;;;;4.30;1.70;;;;;;;25.96;37.10;99920.91;4469598;32;33283;-69
2021/06/13 09:51:34;;;;;;;3.72;1.73;;;;;;;25.95;37.12;99928.28;4469208;32;33805;-68
2021/06/13 09:54:06;;;;;;;4.25;1.35;;;;;;;25.95;37.16;99931.00;4469531;32;33875;-69
2021/06/13 09:56:35;;;;;;;3.35;1.48;;;;;;;25.93;37.17;99924.13;4469466;32;33925;-69
2021/06/13 09:59:09;;;;;;;4.25;1.60;;;;;;;25.93;37.14;99924.97;4469296;32;33449;-70
2021/06/13 10:01:40;;;;;;;3.05;1.40;;;;;;;25.95;37.06;99925.53;4469366;32;33668;-70
2021/06/13 10:04:21;;;;;;;3.12;1.35;;;;;;;25.97;37.02;99928.03;4469204;32;34897;-69
2021/06/13 10:06:56;;;;;;;3.50;1.77;;;;;;;25.98;36.87;99926.16;4469216;32;34717;-69
2021/06/13 10:09:35;;;;;;;3.90;1.60;;;;;;;25.97;36.83;99921.72;4469181;32;33443;-68
2021/06/13 10:12:04;;;;;;;2.55;1.37;;;;;;;25.96;36.89;99907.22;4467945;32;33850;-67
2021/06/13 10:14:37;;;;;;;3.97;1.60;;;;;;;25.94;36.71;99918.41;4469319;32;33909;-69
2021/06/13 10:17:05;;;;;;;4.05;1.80;;;;;;;25.95;36.65;99920.06;4469131;32;33494;-68
2021/06/13 10:19:43;;;;;;;3.17;1.65;;;;;;;25.95;36.62;99920.06;4469312;32;33326;-68
2021/06/13 10:22:12;;;;;;;4.10;1.35;;;;;;;25.97;36.56;99916.25;4469210;32;33437;-69
2021/06/13 10:24:41;;;;;;;5.68;1.70;;;;;;;25.93;36.59;99911.28;4469302;32;33667;-69
2021/06/13 10:27:10;;;;;;;4.68;1.70;;;;;;;25.93;36.63;99918.66;4469368;32;34505;-69
2021/06/13 10:29:40;;;;;;;4.27;1.67;;;;;;;25.95;36.49;99927.44;4475297;32;34051;-69
2021/06/13 10:32:08;;;;;;;4.70;1.93;;;;;;;25.96;36.26;99926.38;4484869;32;33503;-69
2021/06/13 10:34:36;;;;;;;4.50;1.55;;;;;;;25.97;36.45;99933.50;4484177;32;33929;-68
2021/06/13 10:37:05;;;;;;;2.97;1.40;;;;;;;25.96;36.34;99929.09;4484861;32;33802;-70
2021/06/13 10:39:33;;;;;;;3.50;1.50;;;;;;;25.96;36.41;99929.09;4482954;32;33251;-70
2021/06/13 10:42:02;;;;;;;3.55;1.35;;;;;;;25.99;36.27;99931.38;4484821;32;33704;-69
2021/06/13 10:44:30;;;;;;;5.37;1.70;;;;;;;25.98;36.32;99935.19;4484762;32;35006;-69
2021/06/13 10:47:18;;;;;;;3.25;1.58;;;;;;;25.98;36.32;99940.66;4479406;32;34487;-69
2021/06/13 10:49:55;;;;;;;2.85;1.50;;;;;;;26.01;36.42;99939.31;4469026;32;34135;-70
2021/06/13 10:52:24;;;;;;;3.78;1.62;;;;;;;25.98;36.46;99940.66;4467805;32;36108;-71
2021/06/13 10:54:52;;;;;;;4.62;1.58;;;;;;;25.99;36.26;99939.56;4469094;32;33613;-70
2021/06/13 10:57:36;;;;;;;3.00;1.60;;;;;;;26.01;36.24;99931.13;4481715;32;33954;-66
2021/06/13 11:00:30;;;;;;;5.90;1.50;;;;;;;26.01;36.23;99926.47;4483925;32;33593;-67
2021/06/13 11:02:59;;;;;;;5.12;1.80;;;;;;;26.01;36.42;99934.66;4482311;31;33878;-66
2021/06/13 11:05:46;;;;;;;4.85;1.70;;;;;;;26.00;36.22;99930.28;4484405;32;34627;-66
2021/06/13 11:08:14;;;;;;;5.68;1.48;;;;;;;26.01;36.21;99942.88;4484502;32;34877;-66
2021/06/13 11:10:42;;;;;;;3.33;1.40;;;;;;;25.99;36.26;99936.00;4483888;32;34334;-67
2021/06/13 11:13:21;;;;;;;2.53;1.45;;;;;;;26.00;36.29;99930.28;4483988;32;32285;-68
2021/06/13 11:15:50;;;;;;;4.47;1.70;;;;;;;26.00;36.35;99943.94;4483946;32;33962;-66
2021/06/13 11:18:22;;;;;;;4.15;1.73;;;;;;;25.99;36.32;99934.09;4483870;32;33788;-68
2021/06/13 11:20:54;;;;;;;2.83;1.50;;;;;;;25.98;36.46;99932.44;4484545;32;33054;-71
2021/06/13 11:23:22;;;;;;;4.57;1.80;;;;;;;25.97;36.54;99938.97;4484231;32;33640;-69
2021/06/13 11:25:51;;;;;;;3.47;1.30;;;;;;;25.97;36.58;99944.44;4483785;32;34515;-67
2021/06/13 11:28:41;;;;;;;5.60;1.83;;;;;;;25.97;36.66;99949.88;4483900;32;33708;-71
2021/06/13 11:31:08;;;;;;;3.90;1.50;;;;;;;26.01;36.58;99931.94;4482418;32;33371;-69
2021/06/13 11:33:49;;;;;;;3.62;1.50;;;;;;;25.99;36.59;99942.31;4484047;32;33612;-67
2021/06/13 11:36:23;;;;;;;5.10;1.65;;;;;;;25.98;36.61;99935.19;4472694;32;35084;-67
2021/06/13 11:39:13;;;;;;;3.55;1.58;;;;;;;25.95;36.69;99919.25;4468719;32;33834;-68
2021/06/13 11:41:43;;;;;;;5.40;1.70;;;;;;;25.98;36.50;99924.25;4468838;32;33386;-67
2021/06/13 11:44:12;;;;;;;5.32;1.52;;;;;;;25.96;36.47;99923.63;4468499;32;34524;-68
2021/06/13 11:46:44;;;;;;;4.65;1.77;;;;;;;25.95;36.47;99919.25;4468614;32;33960;-68